Time;durP1;ratioP1;P1;durP2;ratioP2;P2;SDS_P1;SDS_P2;PMS_P1;PMS_P2;Temp;Humidity;BMP_temperature;BMP_pressure;BME280_temperature;BME280_humidity;BME280_pressure;Samples;Min_cycle;Max_cycle;Signal;HPM_P1;HPM_P2
2021/12/26 00:02:08;;;;;;;;;;;10.90;98.60;;;;;;5014047;28;20233;-70
2021/12/26 00:04:34;;;;;;;;;;;11.00;98.70;;;;;;5012210;28;19917;-70
2021/12/26 00:07:00;;;;;;;;;;;11.00;98.70;;;;;;5017232;28;19909;-71
2021/12/26 00:09:26;;;;;;;;;;;11.00;98.70;;;;;;5031911;28;20395;-71
2021/12/26 00:11:52;;;;;;;;;;;11.00;98.60;;;;;;5032497;28;19917;-75
2021/12/26 00:14:19;;;;;;;;;;;11.00;98.60;;;;;;5032895;28;19909;-73
2021/12/26 00:16:45;;;;;;;;;;;10.90;98.50;;;;;;5022681;28;19920;-70
2021/12/26 00:19:11;;;;;;;;;;;10.90;98.50;;;;;;5020565;28;19914;-73
2021/12/26 00:21:36;;;;;;;;;;;10.90;98.50;;;;;;5022583;28;19933;-73
2021/12/26 00:24:02;;;;;;;;;;;10.90;98.60;;;;;;5014818;28;20408;-69
2021/12/26 00:26:31;;;;;;;;;;;10.90;98.60;;;;;;5018267;28;19984;-71
2021/12/26 00:28:57;;;;;;;;;;;10.90;98.60;;;;;;5020742;28;19975;-70
2021/12/26 00:31:23;;;;;;;;;;;10.90;98.60;;;;;;5016145;28;20427;-71
2021/12/26 00:33:49;;;;;;;;;;;10.90;98.60;;;;;;5029746;28;19909;-71
2021/12/26 00:36:14;;;;;;;;;;;10.90;98.50;;;;;;5026504;28;20448;-70
2021/12/26 00:38:40;;;;;;;;;;;10.80;98.50;;;;;;5023551;28;20003;-71
2021/12/26 00:41:06;;;;;;;;;;;10.80;98.40;;;;;;5019966;28;19977;-71
2021/12/26 00:43:32;;;;;;;;;;;10.80;98.40;;;;;;5026231;28;19917;-70
2021/12/26 00:45:58;;;;;;;;;;;10.80;98.40;;;;;;5019051;28;19917;-71
2021/12/26 00:48:24;;;;;;;;;;;10.80;98.50;;;;;;5020779;28;19909;-70
2021/12/26 00:50:49;;;;;;;;;;;10.80;98.40;;;;;;5014352;28;19921;-71
2021/12/26 00:53:15;;;;;;;;;;;10.80;98.40;;;;;;5017762;28;19913;-70
2021/12/26 00:55:41;;;;;;;;;;;10.80;98.40;;;;;;5020540;28;19968;-70
2021/12/26 00:58:07;;;;;;;;;;;10.80;98.40;;;;;;5018308;28;19913;-70
2021/12/26 01:00:34;;;;;;;;;;;10.80;98.40;;;;;;5018139;28;19913;-71
2021/12/26 01:03:01;;;;;;;;;;;10.80;98.40;;;;;;5029188;28;19917;-70
2021/12/26 01:05:27;;;;;;;;;;;10.80;98.40;;;;;;5022302;28;19916;-70
2021/12/26 01:10:21;;;;;;;;;;;10.80;98.30;;;;;;5025467;28;19916;-70
2021/12/26 01:12:48;;;;;;;;;;;10.80;98.30;;;;;;5029768;28;19977;-70
2021/12/26 01:15:13;;;;;;;;;;;10.80;98.30;;;;;;5010885;28;19917;-70
2021/12/26 01:17:41;;;;;;;;;;;10.80;98.30;;;;;;5025971;28;19955;-70
2021/12/26 01:20:10;;;;;;;;;;;10.80;98.40;;;;;;5021001;28;19953;-70
2021/12/26 01:22:37;;;;;;;;;;;10.80;98.40;;;;;;5016947;28;19980;-70
2021/12/26 01:25:03;;;;;;;;;;;10.70;98.40;;;;;;5018711;28;20288;-70
2021/12/26 01:27:29;;;;;;;;;;;10.70;98.40;;;;;;5017303;28;19914;-71
2021/12/26 01:29:55;;;;;;;;;;;10.80;98.40;;;;;;5018666;28;20273;-70
2021/12/26 01:32:21;;;;;;;;;;;10.80;98.40;;;;;;5032087;28;19913;-70
2021/12/26 01:34:47;;;;;;;;;;;10.70;98.30;;;;;;5019685;28;19976;-70
2021/12/26 01:37:13;;;;;;;;;;;10.80;98.30;;;;;;5022330;28;19914;-70
2021/12/26 01:39:39;;;;;;;;;;;10.80;98.30;;;;;;5012485;28;19918;-71
2021/12/26 01:42:05;;;;;;;;;;;10.80;98.30;;;;;;5020740;28;19913;-70
2021/12/26 01:44:31;;;;;;;;;;;10.80;98.30;;;;;;5024587;28;19970;-70
2021/12/26 01:46:57;;;;;;;;;;;10.80;98.30;;;;;;5024076;28;19910;-70
2021/12/26 01:49:24;;;;;;;;;;;10.80;98.40;;;;;;5021442;28;20004;-71
2021/12/26 01:51:52;;;;;;;;;;;10.80;98.40;;;;;;5020756;28;19913;-70
2021/12/26 01:54:28;;;;;;;;;;;10.80;98.30;;;;;;5023467;28;19952;-70
2021/12/26 01:56:56;;;;;;;;;;;10.80;98.30;;;;;;5023439;28;19936;-71
2021/12/26 01:59:22;;;;;;;;;;;10.80;98.30;;;;;;5022059;28;19956;-71
2021/12/26 02:01:48;;;;;;;;;;;10.90;98.30;;;;;;5024071;28;19909;-71
2021/12/26 02:04:13;;;;;;;;;;;10.80;98.20;;;;;;5020429;28;19917;-71
2021/12/26 02:06:39;;;;;;;;;;;10.80;98.30;;;;;;5025278;28;19917;-71
2021/12/26 02:09:07;;;;;;;;;;;10.80;98.30;;;;;;5027889;28;19916;-70
2021/12/26 02:11:33;;;;;;;;;;;10.80;98.30;;;;;;5024918;28;20377;-71
2021/12/26 02:13:59;;;;;;;;;;;10.90;98.30;;;;;;5018668;28;20056;-70
2021/12/26 02:16:25;;;;;;;;;;;10.80;98.30;;;;;;5023653;28;20304;-70
2021/12/26 02:18:50;;;;;;;;;;;10.80;98.30;;;;;;5024376;28;19911;-71
2021/12/26 02:21:42;;;;;;;;;;;10.90;98.30;;;;;;5019940;28;19913;-71
2021/12/26 02:24:16;;;;;;;;;;;10.80;98.30;;;;;;5019497;28;19922;-71
2021/12/26 02:29:26;;;;;;;;;;;10.90;98.40;;;;;;5019487;28;20000;-71
2021/12/26 02:31:52;;;;;;;;;;;10.90;98.60;;;;;;5021800;28;19948;-71
2021/12/26 02:34:17;;;;;;;;;;;10.90;98.70;;;;;;5022918;28;19914;-71
2021/12/26 02:36:43;;;;;;;;;;;11.00;98.80;;;;;;5029755;28;19909;-71
2021/12/26 02:39:09;;;;;;;;;;;10.90;98.80;;;;;;5019106;28;19909;-71
2021/12/26 02:41:35;;;;;;;;;;;11.00;98.80;;;;;;5005536;28;20005;-71
2021/12/26 02:44:00;;;;;;;;;;;11.00;98.80;;;;;;5013327;28;19984;-71
2021/12/26 02:46:26;;;;;;;;;;;11.00;98.80;;;;;;5017428;28;19909;-70
2021/12/26 02:48:52;;;;;;;;;;;11.00;98.80;;;;;;5021225;28;19914;-71
2021/12/26 02:51:18;;;;;;;;;;;11.00;98.80;;;;;;5030047;28;19910;-71
2021/12/26 02:53:45;;;;;;;;;;;11.00;98.70;;;;;;5019279;28;20389;-71
2021/12/26 02:56:11;;;;;;;;;;;11.00;98.70;;;;;;5019233;28;19996;-71
2021/12/26 02:58:36;;;;;;;;;;;11.00;98.70;;;;;;5019317;28;19945;-71
2021/12/26 03:01:05;;;;;;;;;;;11.00;98.60;;;;;;5025258;28;19913;-71
2021/12/26 03:03:30;;;;;;;;;;;11.00;98.60;;;;;;5036069;28;19910;-71
2021/12/26 03:05:59;;;;;;;;;;;11.00;98.70;;;;;;5021463;28;19910;-71
2021/12/26 03:08:25;;;;;;;;;;;11.00;98.70;;;;;;5029557;28;20369;-71
2021/12/26 03:10:52;;;;;;;;;;;10.90;98.70;;;;;;5018460;28;19936;-71
2021/12/26 03:13:18;;;;;;;;;;;10.90;98.70;;;;;;5030495;28;20070;-71
2021/12/26 03:15:44;;;;;;;;;;;10.90;98.80;;;;;;5038752;28;20383;-70
2021/12/26 03:18:10;;;;;;;;;;;10.90;98.80;;;;;;5039053;28;19935;-71
2021/12/26 03:20:41;;;;;;;;;;;10.90;98.70;;;;;;5038680;28;19921;-70
2021/12/26 03:23:07;;;;;;;;;;;10.90;98.70;;;;;;5018223;28;19922;-70
2021/12/26 03:25:33;;;;;;;;;;;10.90;98.60;;;;;;5020223;28;19935;-70
2021/12/26 03:28:00;;;;;;;;;;;10.80;98.50;;;;;;5018797;28;20328;-70
2021/12/26 03:30:26;;;;;;;;;;;10.80;98.40;;;;;;5023863;28;19909;-70
2021/12/26 03:32:52;;;;;;;;;;;10.80;98.40;;;;;;5034621;28;19909;-71
2021/12/26 03:35:19;;;;;;;;;;;10.80;98.40;;;;;;5018932;28;20012;-70
2021/12/26 03:37:44;;;;;;;;;;;10.80;98.30;;;;;;5019171;28;19909;-71
2021/12/26 03:40:11;;;;;;;;;;;10.70;98.30;;;;;;5033158;28;20073;-70
2021/12/26 03:42:37;;;;;;;;;;;10.70;98.20;;;;;;5030806;28;19916;-71
2021/12/26 03:45:04;;;;;;;;;;;10.70;98.30;;;;;;5022397;28;19916;-71
2021/12/26 03:47:31;;;;;;;;;;;10.70;98.30;;;;;;5014046;28;20289;-71
2021/12/26 03:49:57;;;;;;;;;;;10.70;98.40;;;;;;5018700;28;20365;-70
2021/12/26 03:52:24;;;;;;;;;;;10.70;98.40;;;;;;5021960;28;19917;-70
2021/12/26 03:54:51;;;;;;;;;;;10.70;98.40;;;;;;5018553;28;19909;-70
2021/12/26 03:57:16;;;;;;;;;;;10.60;98.30;;;;;;5017050;28;19909;-70
2021/12/26 03:59:42;;;;;;;;;;;10.60;98.30;;;;;;5022590;28;19937;-70
2021/12/26 04:02:08;;;;;;;;;;;10.60;98.30;;;;;;5018661;28;19921;-71
2021/12/26 04:04:33;;;;;;;;;;;10.60;98.20;;;;;;5017140;28;19905;-70
2021/12/26 04:06:59;;;;;;;;;;;10.60;98.20;;;;;;5024691;28;19933;-70
2021/12/26 04:09:25;;;;;;;;;;;10.60;98.20;;;;;;5014921;28;20249;-70
2021/12/26 04:11:50;;;;;;;;;;;10.50;98.10;;;;;;5022581;28;19979;-70
2021/12/26 04:14:17;;;;;;;;;;;10.50;98.30;;;;;;5016507;28;20009;-70
2021/12/26 04:16:42;;;;;;;;;;;10.60;98.60;;;;;;5018041;28;20428;-70
2021/12/26 04:19:08;;;;;;;;;;;10.60;98.90;;;;;;5016196;28;19936;-70
2021/12/26 04:21:34;;;;;;;;;;;10.60;98.90;;;;;;5017798;28;19936;-70
2021/12/26 04:24:00;;;;;;;;;;;10.60;98.90;;;;;;5016714;28;19957;-70
2021/12/26 04:26:26;;;;;;;;;;;10.60;99.00;;;;;;5018662;28;20008;-70
2021/12/26 04:28:52;;;;;;;;;;;10.60;99.10;;;;;;5017531;28;19952;-71
2021/12/26 04:31:17;;;;;;;;;;;10.60;99.10;;;;;;5018335;28;19999;-71
2021/12/26 04:33:43;;;;;;;;;;;10.50;99.00;;;;;;5014543;28;19994;-71
2021/12/26 04:36:09;;;;;;;;;;;10.50;99.10;;;;;;5017430;28;19921;-70
2021/12/26 04:38:35;;;;;;;;;;;10.50;99.20;;;;;;5028678;28;19910;-70
2021/12/26 04:41:03;;;;;;;;;;;10.40;99.10;;;;;;5021488;28;19914;-70
2021/12/26 04:43:29;;;;;;;;;;;10.40;99.20;;;;;;5014883;28;19914;-71
2021/12/26 04:45:55;;;;;;;;;;;10.40;99.30;;;;;;5016860;28;19960;-71
2021/12/26 04:48:21;;;;;;;;;;;10.40;99.20;;;;;;5014062;28;19918;-71
2021/12/26 04:50:46;;;;;;;;;;;10.40;99.30;;;;;;5016654;28;20044;-71
2021/12/26 04:53:12;;;;;;;;;;;10.40;99.60;;;;;;5019470;28;19920;-70
2021/12/26 04:55:38;;;;;;;;;;;10.30;99.20;;;;;;5016581;28;19913;-70
2021/12/26 04:58:03;;;;;;;;;;;10.30;99.20;;;;;;5011894;28;20008;-71
2021/12/26 05:00:30;;;;;;;;;;;10.30;99.00;;;;;;5023067;28;19914;-71
2021/12/26 05:02:56;;;;;;;;;;;10.30;98.90;;;;;;5025361;28;20341;-70
2021/12/26 05:05:22;;;;;;;;;;;10.30;99.10;;;;;;5017339;28;20004;-70
2021/12/26 05:07:49;;;;;;;;;;;10.30;99.20;;;;;;5016586;28;19945;-70
2021/12/26 05:10:18;;;;;;;;;;;10.30;99.20;;;;;;5019367;28;19909;-70
2021/12/26 05:12:43;;;;;;;;;;;10.30;99.30;;;;;;5013740;28;19909;-70
2021/12/26 05:15:10;;;;;;;;;;;10.30;99.50;;;;;;5020636;28;19914;-70
2021/12/26 05:17:36;;;;;;;;;;;10.30;99.50;;;;;;5020892;28;19914;-70
2021/12/26 05:20:01;;;;;;;;;;;10.30;99.60;;;;;;5020002;28;19928;-71
2021/12/26 05:22:27;;;;;;;;;;;10.30;99.70;;;;;;5028089;28;19913;-71
2021/12/26 05:24:53;;;;;;;;;;;10.40;99.90;;;;;;5023724;28;20266;-71
2021/12/26 05:27:19;;;;;;;;;;;10.30;99.90;;;;;;5020342;28;19922;-71
2021/12/26 05:29:44;;;;;;;;;;;10.30;99.90;;;;;;5020320;28;19910;-71
2021/12/26 05:32:10;;;;;;;;;;;10.30;99.90;;;;;;5031069;28;19967;-71
2021/12/26 05:34:36;;;;;;;;;;;10.40;99.90;;;;;;5021049;28;19993;-71
2021/12/26 05:37:01;;;;;;;;;;;10.40;99.90;;;;;;5013273;28;19921;-70
2021/12/26 05:39:27;;;;;;;;;;;10.40;99.90;;;;;;5023041;28;19913;-71
2021/12/26 05:41:53;;;;;;;;;;;10.30;99.80;;;;;;5021623;28;20363;-70
2021/12/26 05:44:19;;;;;;;;;;;10.30;99.90;;;;;;5020669;28;19921;-71
2021/12/26 05:46:45;;;;;;;;;;;10.30;99.90;;;;;;5007751;28;20300;-71
2021/12/26 05:49:11;;;;;;;;;;;10.30;99.90;;;;;;5020528;28;19914;-71
2021/12/26 05:51:37;;;;;;;;;;;10.40;99.90;;;;;;5020605;28;19920;-71
2021/12/26 05:54:03;;;;;;;;;;;10.40;99.90;;;;;;5020579;28;19940;-71
2021/12/26 05:56:28;;;;;;;;;;;10.40;99.90;;;;;;5023835;28;19964;-71
2021/12/26 05:58:54;;;;;;;;;;;10.30;99.90;;;;;;5022417;28;19913;-71
2021/12/26 06:01:19;;;;;;;;;;;10.30;99.90;;;;;;5020536;28;19917;-71
2021/12/26 06:03:45;;;;;;;;;;;10.30;99.90;;;;;;5018333;28;19921;-71
2021/12/26 06:06:11;;;;;;;;;;;10.30;99.90;;;;;;5026021;28;19924;-71
2021/12/26 06:08:36;;;;;;;;;;;10.30;99.90;;;;;;5021935;28;19990;-71
2021/12/26 06:11:02;;;;;;;;;;;10.20;99.80;;;;;;5025540;28;19968;-71
2021/12/26 06:13:29;;;;;;;;;;;10.20;99.60;;;;;;5030952;28;19963;-72
2021/12/26 06:15:55;;;;;;;;;;;10.20;99.40;;;;;;5029005;28;19953;-71
2021/12/26 06:18:21;;;;;;;;;;;10.10;99.30;;;;;;5018069;28;19914;-71
2021/12/26 06:20:46;;;;;;;;;;;10.10;99.10;;;;;;5031184;28;20372;-71
2021/12/26 06:23:12;;;;;;;;;;;10.00;99.00;;;;;;5016048;28;20332;-71
2021/12/26 06:25:39;;;;;;;;;;;10.00;98.90;;;;;;5016276;28;19914;-70
2021/12/26 06:28:04;;;;;;;;;;;9.90;98.80;;;;;;5006824;28;19913;-71
2021/12/26 06:30:30;;;;;;;;;;;9.90;98.70;;;;;;5025241;28;19909;-70
2021/12/26 06:32:56;;;;;;;;;;;9.90;98.70;;;;;;5026095;28;19960;-71
2021/12/26 06:35:22;;;;;;;;;;;9.80;98.60;;;;;;5017934;28;19917;-71
2021/12/26 06:37:47;;;;;;;;;;;9.80;98.40;;;;;;5012054;28;19914;-71
2021/12/26 06:40:13;;;;;;;;;;;9.80;98.40;;;;;;5013649;28;19964;-71
2021/12/26 06:42:42;;;;;;;;;;;9.70;98.20;;;;;;5019319;28;20421;-71
2021/12/26 06:45:09;;;;;;;;;;;9.70;98.20;;;;;;5018783;28;20354;-70
2021/12/26 06:47:35;;;;;;;;;;;9.60;98.10;;;;;;5019051;28;19920;-70
2021/12/26 06:50:00;;;;;;;;;;;9.60;98.00;;;;;;5013034;28;19914;-71
2021/12/26 06:52:26;;;;;;;;;;;9.50;98.00;;;;;;5015101;28;20493;-70
2021/12/26 06:54:52;;;;;;;;;;;9.50;98.00;;;;;;5018906;28;19940;-71
2021/12/26 06:57:17;;;;;;;;;;;9.50;98.00;;;;;;5019264;28;19941;-70
2021/12/26 06:59:43;;;;;;;;;;;9.50;98.00;;;;;;5021493;28;19996;-70
2021/12/26 07:02:09;;;;;;;;;;;9.40;98.30;;;;;;5020484;28;19914;-71
2021/12/26 07:04:34;;;;;;;;;;;9.50;98.00;;;;;;5017935;28;19913;-73
2021/12/26 07:07:00;;;;;;;;;;;9.50;98.00;;;;;;5016310;28;20348;-71
2021/12/26 07:09:26;;;;;;;;;;;9.50;98.00;;;;;;5015546;28;19959;-71
2021/12/26 07:11:51;;;;;;;;;;;9.50;98.00;;;;;;5016995;28;19917;-71
2021/12/26 07:14:17;;;;;;;;;;;9.50;98.00;;;;;;5017758;28;19913;-71
2021/12/26 07:16:43;;;;;;;;;;;9.50;98.00;;;;;;5015121;28;19913;-71
2021/12/26 07:19:08;;;;;;;;;;;9.50;98.00;;;;;;5017459;28;20000;-71
2021/12/26 07:21:34;;;;;;;;;;;9.50;98.00;;;;;;5017113;28;19970;-72
2021/12/26 07:24:00;;;;;;;;;;;9.40;97.90;;;;;;5016675;28;19932;-71
2021/12/26 07:26:25;;;;;;;;;;;9.40;97.90;;;;;;5016277;28;19926;-71
2021/12/26 07:28:51;;;;;;;;;;;9.40;97.90;;;;;;5017849;28;19917;-70
2021/12/26 07:31:17;;;;;;;;;;;9.40;97.90;;;;;;5016319;28;19917;-71
2021/12/26 07:33:42;;;;;;;;;;;9.40;97.80;;;;;;5009154;28;19979;-71
2021/12/26 07:36:08;;;;;;;;;;;9.40;97.90;;;;;;5012756;28;19928;-71
2021/12/26 07:38:34;;;;;;;;;;;9.30;97.80;;;;;;5016590;28;19930;-71
2021/12/26 07:40:59;;;;;;;;;;;9.40;97.90;;;;;;5015259;28;19917;-71
2021/12/26 07:43:25;;;;;;;;;;;9.30;97.90;;;;;;5018013;28;20356;-71
2021/12/26 07:45:51;;;;;;;;;;;9.30;97.90;;;;;;5018267;28;19918;-71
2021/12/26 07:48:16;;;;;;;;;;;9.30;98.00;;;;;;5016687;28;19991;-71
2021/12/26 07:50:42;;;;;;;;;;;9.40;98.00;;;;;;5016601;28;19940;-71
2021/12/26 07:53:10;;;;;;;;;;;9.40;98.00;;;;;;5014780;28;20336;-71
2021/12/26 07:55:37;;;;;;;;;;;9.40;98.00;;;;;;5014804;28;20284;-71
2021/12/26 07:58:03;;;;;;;;;;;9.40;98.20;;;;;;5017602;28;19963;-70
2021/12/26 08:00:29;;;;;;;;;;;9.50;98.20;;;;;;5023047;28;19917;-72
2021/12/26 08:02:55;;;;;;;;;;;9.50;98.30;;;;;;5020574;28;19928;-69
2021/12/26 08:05:21;;;;;;;;;;;9.50;98.30;;;;;;5016967;28;20019;-71
2021/12/26 08:07:47;;;;;;;;;;;9.60;98.60;;;;;;5017449;28;19956;-70
2021/12/26 08:10:12;;;;;;;;;;;9.60;98.70;;;;;;5017902;28;19980;-70
2021/12/26 08:12:38;;;;;;;;;;;9.60;98.90;;;;;;5017723;28;20332;-71
2021/12/26 08:15:04;;;;;;;;;;;9.70;99.00;;;;;;5016082;28;19914;-70
2021/12/26 08:17:30;;;;;;;;;;;9.70;99.10;;;;;;5010788;28;20427;-71
2021/12/26 08:19:56;;;;;;;;;;;9.70;99.20;;;;;;5025207;28;19922;-69
2021/12/26 08:22:22;;;;;;;;;;;9.80;99.40;;;;;;5016332;28;20501;-71
2021/12/26 08:24:47;;;;;;;;;;;9.90;99.60;;;;;;5015354;28;19914;-71
2021/12/26 08:27:13;;;;;;;;;;;9.90;99.70;;;;;;5015341;28;19917;-72
2021/12/26 08:29:39;;;;;;;;;;;9.90;99.80;;;;;;5016368;28;20284;-74
2021/12/26 08:32:06;;;;;;;;;;;9.90;99.90;;;;;;5019206;28;19913;-75
2021/12/26 08:34:31;;;;;;;;;;;9.90;99.90;;;;;;5022411;28;19924;-73
2021/12/26 08:37:00;;;;;;;;;;;9.90;99.90;;;;;;5011932;28;19973;-72
2021/12/26 08:39:27;;;;;;;;;;;10.00;99.90;;;;;;5017668;28;19953;-72
2021/12/26 08:41:53;;;;;;;;;;;10.00;99.90;;;;;;5012962;28;19967;-73
2021/12/26 08:44:19;;;;;;;;;;;10.00;99.90;;;;;;5013902;28;19913;-75
2021/12/26 08:46:46;;;;;;;;;;;10.00;99.90;;;;;;5016041;28;19913;-77
2021/12/26 08:49:12;;;;;;;;;;;10.00;99.90;;;;;;5015174;28;19925;-74
2021/12/26 08:51:38;;;;;;;;;;;10.10;99.90;;;;;;5015612;28;20319;-74
2021/12/26 08:54:04;;;;;;;;;;;10.10;99.90;;;;;;5014422;28;19921;-73
2021/12/26 08:56:30;;;;;;;;;;;10.20;99.90;;;;;;5008161;28;19959;-75
2021/12/26 08:58:56;;;;;;;;;;;10.20;99.90;;;;;;5014819;28;19920;-71
2021/12/26 09:01:21;;;;;;;;;;;10.20;99.90;;;;;;5021038;28;20463;-71
2021/12/26 09:03:47;;;;;;;;;;;10.30;99.90;;;;;;5008204;28;20377;-69
2021/12/26 09:06:13;;;;;;;;;;;10.30;99.90;;;;;;5011172;28;20011;-71
2021/12/26 09:08:39;;;;;;;;;;;10.30;99.90;;;;;;5010089;28;20408;-70
2021/12/26 09:11:04;;;;;;;;;;;10.30;99.90;;;;;;5013052;28;20004;-70
2021/12/26 09:13:30;;;;;;;;;;;10.30;99.90;;;;;;5013154;28;19917;-71
2021/12/26 09:15:56;;;;;;;;;;;10.40;99.90;;;;;;5015216;28;19949;-71
2021/12/26 09:18:22;;;;;;;;;;;10.40;99.90;;;;;;5017058;28;19918;-71
2021/12/26 09:20:47;;;;;;;;;;;10.40;99.90;;;;;;5015181;28;19917;-70
2021/12/26 09:23:13;;;;;;;;;;;10.40;99.90;;;;;;5015709;28;19988;-68
2021/12/26 09:25:39;;;;;;;;;;;10.40;99.90;;;;;;5014264;28;19914;-72
2021/12/26 09:28:04;;;;;;;;;;;10.50;99.90;;;;;;5015498;28;19921;-70
2021/12/26 09:30:30;;;;;;;;;;;10.50;99.90;;;;;;5016176;28;19909;-71
2021/12/26 09:32:56;;;;;;;;;;;10.50;99.90;;;;;;5024989;28;20011;-70
2021/12/26 09:35:22;;;;;;;;;;;10.50;99.90;;;;;;5016396;28;20466;-71
2021/12/26 09:37:47;;;;;;;;;;;10.50;99.90;;;;;;5008602;28;19968;-71
2021/12/26 09:40:14;;;;;;;;;;;10.60;99.90;;;;;;5015806;28;19922;-71
2021/12/26 09:42:41;;;;;;;;;;;10.50;99.90;;;;;;5015782;28;19913;-70
2021/12/26 09:45:09;;;;;;;;;;;10.60;99.90;;;;;;5013582;28;20296;-68
2021/12/26 09:47:35;;;;;;;;;;;10.60;99.90;;;;;;5007711;28;19914;-69
2021/12/26 09:50:02;;;;;;;;;;;10.60;99.90;;;;;;5016264;28;20278;-68
2021/12/26 09:52:28;;;;;;;;;;;10.60;99.90;;;;;;5015042;28;20284;-68
2021/12/26 09:54:53;;;;;;;;;;;10.70;99.90;;;;;;5019214;28;19913;-68
2021/12/26 09:57:19;;;;;;;;;;;10.70;99.90;;;;;;5015710;28;19913;-69
2021/12/26 09:59:48;;;;;;;;;;;10.70;99.90;;;;;;5021670;28;19913;-69
2021/12/26 10:02:14;;;;;;;;;;;10.70;99.90;;;;;;5021246;28;19925;-69
2021/12/26 10:04:41;;;;;;;;;;;10.70;99.90;;;;;;5013710;28;19917;-68
2021/12/26 10:07:14;;;;;;;;;;;10.80;99.90;;;;;;5029170;28;19913;-67
2021/12/26 10:09:41;;;;;;;;;;;10.80;99.90;;;;;;5024566;28;20362;-68
2021/12/26 10:12:07;;;;;;;;;;;10.80;99.90;;;;;;5020770;28;19913;-73
2021/12/26 10:14:35;;;;;;;;;;;10.80;99.90;;;;;;5026674;28;20371;-70
2021/12/26 10:17:06;;;;;;;;;;;10.80;99.90;;;;;;5018106;28;20300;-69
2021/12/26 10:19:35;;;;;;;;;;;10.90;99.90;;;;;;5017945;28;20031;-72
2021/12/26 10:22:02;;;;;;;;;;;10.90;99.90;;;;;;5015692;28;19921;-72
2021/12/26 10:24:28;;;;;;;;;;;10.90;99.90;;;;;;5021401;28;19929;-70
2021/12/26 10:26:54;;;;;;;;;;;10.90;99.90;;;;;;5023369;28;19913;-70
2021/12/26 10:29:27;;;;;;;;;;;11.00;99.90;;;;;;5018924;28;20369;-72
2021/12/26 10:31:59;;;;;;;;;;;10.90;99.90;;;;;;5022080;28;19917;-71
2021/12/26 10:34:27;;;;;;;;;;;11.00;99.90;;;;;;5018798;28;19953;-74
2021/12/26 10:36:53;;;;;;;;;;;11.00;99.90;;;;;;5030230;28;19933;-73
2021/12/26 10:39:21;;;;;;;;;;;11.00;99.90;;;;;;5017102;28;19917;-73
2021/12/26 10:41:51;;;;;;;;;;;11.10;99.90;;;;;;5018549;28;19924;-72
2021/12/26 10:44:21;;;;;;;;;;;11.10;99.90;;;;;;5016438;28;20005;-72
2021/12/26 10:46:48;;;;;;;;;;;11.10;99.90;;;;;;5014481;28;19937;-75
2021/12/26 10:49:24;;;;;;;;;;;11.20;99.90;;;;;;5018434;28;19917;-72
2021/12/26 10:51:50;;;;;;;;;;;11.20;99.90;;;;;;5010784;28;20045;-74
2021/12/26 10:54:17;;;;;;;;;;;11.30;99.90;;;;;;5010747;28;19971;-74
2021/12/26 10:57:00;;;;;;;;;;;11.30;99.90;;;;;;5015145;28;19921;-73
2021/12/26 10:59:26;;;;;;;;;;;11.50;99.90;;;;;;5019594;28;20372;-78
2021/12/26 11:01:54;;;;;;;;;;;11.60;99.90;;;;;;5016541;28;20029;-84
2021/12/26 11:04:20;;;;;;;;;;;11.70;99.90;;;;;;5015430;28;19921;-82
2021/12/26 11:07:00;;;;;;;;;;;11.90;99.90;;;;;;5015915;28;19913;-74
2021/12/26 11:09:26;;;;;;;;;;;12.20;99.90;;;;;;5019586;28;19965;-73
2021/12/26 11:11:59;;;;;;;;;;;12.40;99.90;;;;;;5018514;28;20357;-71
2021/12/26 11:14:25;;;;;;;;;;;12.50;99.90;;;;;;5021885;28;19924;-72
2021/12/26 11:16:51;;;;;;;;;;;12.70;99.90;;;;;;5019439;28;20348;-69
2021/12/26 11:19:36;;;;;;;;;;;12.80;99.90;;;;;;5010686;28;19920;-72
2021/12/26 11:22:03;;;;;;;;;;;12.90;99.90;;;;;;5015722;28;19925;-71
2021/12/26 11:24:29;;;;;;;;;;;13.00;99.90;;;;;;5018695;28;19979;-73
2021/12/26 11:26:55;;;;;;;;;;;13.10;99.90;;;;;;5016229;28;20365;-72
2021/12/26 11:29:20;;;;;;;;;;;13.00;99.90;;;;;;5010546;28;19913;-71
2021/12/26 11:31:48;;;;;;;;;;;13.00;99.90;;;;;;5014482;28;19921;-70
2021/12/26 11:34:14;;;;;;;;;;;13.00;99.90;;;;;;5020435;28;19921;-72
2021/12/26 11:36:40;;;;;;;;;;;12.90;99.70;;;;;;5026232;28;19909;-71
2021/12/26 11:39:07;;;;;;;;;;;12.80;99.90;;;;;;5015154;28;19972;-72
2021/12/26 11:42:02;;;;;;;;;;;12.80;99.90;;;;;;5016441;28;19964;-70
2021/12/26 11:44:43;;;;;;;;;;;12.90;99.90;;;;;;4991545;28;20000;-71
2021/12/26 11:47:15;;;;;;;;;;;13.00;99.90;;;;;;5021886;28;19921;-70
2021/12/26 11:50:03;;;;;;;;;;;13.10;99.90;;;;;;5014718;28;19954;-71
2021/12/26 11:52:47;;;;;;;;;;;13.10;99.90;;;;;;5013880;28;20361;-71
2021/12/26 11:55:32;;;;;;;;;;;13.10;99.90;;;;;;5035867;28;19918;-74
2021/12/26 11:58:00;;;;;;;;;;;13.10;99.90;;;;;;5030855;28;19913;-73
2021/12/26 12:00:33;;;;;;;;;;;13.00;99.50;;;;;;5021422;28;19917;-72
2021/12/26 12:03:00;;;;;;;;;;;13.00;99.30;;;;;;5021143;28;19920;-71
2021/12/26 12:05:30;;;;;;;;;;;13.00;99.70;;;;;;5021641;28;19913;-70
2021/12/26 12:07:58;;;;;;;;;;;13.20;99.90;;;;;;5019168;28;20004;-71
2021/12/26 12:10:42;;;;;;;;;;;13.50;99.90;;;;;;5015545;28;20419;-72
2021/12/26 12:13:13;;;;;;;;;;;13.90;99.90;;;;;;5014950;28;19914;-77
2021/12/26 12:15:50;;;;;;;;;;;14.40;99.90;;;;;;5025247;28;19929;-73
2021/12/26 12:18:30;;;;;;;;;;;14.70;99.40;;;;;;5018084;28;19945;-77
2021/12/26 12:21:14;;;;;;;;;;;15.10;97.90;;;;;;5015830;28;19975;-77
2021/12/26 12:23:58;;;;;;;;;;;15.50;96.70;;;;;;5032110;28;20015;-75
2021/12/26 12:26:36;;;;;;;;;;;15.60;95.60;;;;;;5019601;28;19913;-78
2021/12/26 12:29:02;;;;;;;;;;;15.50;94.20;;;;;;5020666;28;19914;-75
2021/12/26 12:31:28;;;;;;;;;;;15.40;93.50;;;;;;5015746;28;19914;-77
2021/12/26 12:34:01;;;;;;;;;;;15.20;93.90;;;;;;5021325;28;20000;-71
2021/12/26 12:36:28;;;;;;;;;;;15.10;93.10;;;;;;5019222;28;19913;-70
2021/12/26 12:38:54;;;;;;;;;;;15.00;93.60;;;;;;5014326;28;20005;-74
2021/12/26 12:41:38;;;;;;;;;;;14.90;93.80;;;;;;5014436;28;19969;-72
2021/12/26 12:44:21;;;;;;;;;;;14.90;93.90;;;;;;5014781;28;20198;-72
2021/12/26 12:46:57;;;;;;;;;;;14.90;92.80;;;;;;5017574;28;19920;-74
2021/12/26 12:49:43;;;;;;;;;;;14.70;93.00;;;;;;5026621;28;20736;-77
2021/12/26 12:52:28;;;;;;;;;;;14.60;93.00;;;;;;5017970;28;20284;-75
2021/12/26 12:54:54;;;;;;;;;;;14.50;92.50;;;;;;5027836;28;19913;-75
2021/12/26 12:57:34;;;;;;;;;;;14.40;93.00;;;;;;5017985;28;20376;-72
2021/12/26 13:00:00;;;;;;;;;;;14.30;93.00;;;;;;5021830;28;19983;-72
2021/12/26 13:02:29;;;;;;;;;;;14.20;93.30;;;;;;5020015;28;19917;-71
2021/12/26 13:04:55;;;;;;;;;;;14.10;92.10;;;;;;5015637;28;19964;-73
2021/12/26 13:07:25;;;;;;;;;;;14.10;92.70;;;;;;5014680;28;19910;-73
2021/12/26 13:09:53;;;;;;;;;;;14.00;93.30;;;;;;5015058;28;20336;-73
2021/12/26 13:12:19;;;;;;;;;;;14.00;93.80;;;;;;5017243;28;19973;-73
2021/12/26 13:14:48;;;;;;;;;;;14.00;94.10;;;;;;5015313;28;19914;-74
2021/12/26 13:17:15;;;;;;;;;;;14.00;93.90;;;;;;5017410;28;19960;-78
2021/12/26 13:19:42;;;;;;;;;;;14.00;93.70;;;;;;5015307;28;19914;-73
2021/12/26 13:22:07;;;;;;;;;;;14.00;93.30;;;;;;5016652;28;20325;-72
2021/12/26 13:24:37;;;;;;;;;;;14.00;93.90;;;;;;5010787;28;19921;-75
2021/12/26 13:27:04;;;;;;;;;;;13.90;94.20;;;;;;5011771;28;20361;-76
2021/12/26 13:29:30;;;;;;;;;;;13.90;94.40;;;;;;5014114;28;19959;-76
2021/12/26 13:31:55;;;;;;;;;;;13.90;94.50;;;;;;5018762;28;19909;-76
2021/12/26 13:34:21;;;;;;;;;;;13.80;94.20;;;;;;5022070;28;19921;-76
2021/12/26 13:36:47;;;;;;;;;;;13.80;94.20;;;;;;5019848;28;19910;-76
2021/12/26 13:39:21;;;;;;;;;;;13.90;94.00;;;;;;5018941;28;19918;-81
2021/12/26 13:41:48;;;;;;;;;;;13.80;93.20;;;;;;5009062;28;19980;-84
2021/12/26 13:44:14;;;;;;;;;;;13.80;93.70;;;;;;5011669;28;19917;-77
2021/12/26 13:46:40;;;;;;;;;;;13.80;93.70;;;;;;5018926;28;19931;-78
2021/12/26 13:49:10;;;;;;;;;;;13.80;94.00;;;;;;5019586;28;20000;-81
2021/12/26 13:51:54;;;;;;;;;;;13.80;94.00;;;;;;5020427;28;19913;-77
2021/12/26 13:54:29;;;;;;;;;;;13.80;93.80;;;;;;5011789;28;20351;-77
2021/12/26 13:56:56;;;;;;;;;;;13.70;93.80;;;;;;5019135;28;19910;-76
2021/12/26 13:59:28;;;;;;;;;;;13.70;93.90;;;;;;5021923;28;19921;-75
2021/12/26 14:01:54;;;;;;;;;;;13.70;93.90;;;;;;5022777;28;19953;-76
2021/12/26 14:04:26;;;;;;;;;;;13.70;94.20;;;;;;5020545;28;19917;-82
2021/12/26 14:06:52;;;;;;;;;;;13.70;94.40;;;;;;5011802;28;19983;-78
2021/12/26 14:09:17;;;;;;;;;;;13.80;94.80;;;;;;5014722;28;19913;-78
2021/12/26 14:11:43;;;;;;;;;;;13.80;94.70;;;;;;5014276;28;19914;-79
2021/12/26 14:14:09;;;;;;;;;;;13.80;94.90;;;;;;5018302;28;19921;-73
2021/12/26 14:16:41;;;;;;;;;;;13.90;94.80;;;;;;5018226;28;19913;-72
2021/12/26 14:19:09;;;;;;;;;;;13.80;94.90;;;;;;5018893;28;19909;-72
2021/12/26 14:21:41;;;;;;;;;;;13.80;95.00;;;;;;5031301;28;19921;-70
2021/12/26 14:24:07;;;;;;;;;;;13.80;95.10;;;;;;5019712;28;19968;-69
2021/12/26 14:26:39;;;;;;;;;;;13.80;95.10;;;;;;5018063;28;19913;-68